Cairns AAF (Fort Rucker) Air Field
KOZR : now visible

Airfield :











YOU CAN JOIN US ON...

 
LOGIN :

Register | Disclaimer

   EN    FR    IT 

 









Legend :    VFR   Marginal VFR   IFR   Intensive IFR   Very Intensive IFR
Visi :
Ceiling :
>= 8 km
>= 3000ft
5 to 8 km
1000 to 3000 ft
1500m to 5 km
500 to 1000 ft
800 to 1500m
200 to 500 ft
< 800m
< 200 ft
Symbols :   Thunderstorms  Fog  Heavy snow  Heavy precipitations  Wind > 20 kt






- Airport Elevation : 301 ft


KOZR - Cairns AAF (Fort Rucker) Air Field

CURRENT METAR :
  • 260356Z AUTO 00000KT 10SM OVC090 21/21 A2996 RMK AO2 DZE11RAB11E27DZB27E29DZB34E43RAB43E51DZB51E54 SLP145 P0001 T02110206

EXPIRED METARs :
  • 260334Z AUTO 00000KT 10SM -DZ BKN090 OVC100 21/21 A2997 RMK AO2 DZE11RAB11E27DZB27E29DZB34 SLP148
  • 260256Z AUTO 02003KT 10SM -DZ FEW070 OVC100 21/21 A2997 RMK AO2 DZB33E49RAB49E52DZB52 SLP148 P0001 60002 T02130206 50007
  • 260233Z AUTO 00000KT 10SM -DZ FEW012 FEW021 SCT070 BKN090 OVC140 21/20 A2997 RMK AO2 DZB33 SLP149
  • 260156Z AUTO 02003KT 10SM FEW027 BKN100 OVC150 21/20 A2997 RMK AO2 DZE0057 SLP149 P0000 T02120200

TAF TAF KOZR
Valid from the 26 at 00:00 until the 27 at 06:00 UTC


260000Z 2600/2706 09009KT 9000 -SHRA FEW020 BKN040 QNH2991INS
BECMG 2603/2604 09006KT 9999 NSW SCT015 510013 QNH3001INS
BECMG 2608/2609 07009KT 8000 -SHRA BKN015 QNH2995INS
BECMG 2611/2612 08009KT 8000 BR BKN008 QNH2997INS
BECMG 2619/2620 07009KT 9000 -SHRA BKN025 QNH2992INS
TEMPO 2619/2623 13020G30KT 9000 -TSRA BKN020CB OVC030
BECMG 2703/2704 07009KT 8000 -SHRA BKN025 510203 QNH2995INS TX28/2618Z TN21/2606Z
KZJX FIR / North America



MET'MAP, your aeronautical weather chart ! - Copyright ORBIFLY December 2007 - Disclaimer

ORBIFLY MET'MAP TEAM :

Programming & Development : Alexandra Zaïnal
Concept & original design : Baudouin d'Aumeries
Assistance for programming : Marc-Olivier Méhu
Technical & hardware support : Manuel Goepfert

Contact : metmap@orbifly.com




SOURCES & CREDITS :

   NOAA       Earth
Advisory